sensor_id;sensor_type;location;lat;lon;timestamp;P1;durP1;ratioP1;P2;durP2;ratioP2
36189;SDS011;22232;50.914;13.858;2023-02-12T00:01:15;107.55;;;39.25;;
36189;SDS011;22232;50.914;13.858;2023-02-12T00:03:43;108.28;;;39.03;;
36189;SDS011;22232;50.914;13.858;2023-02-12T00:06:11;116.57;;;40.85;;
36189;SDS011;22232;50.914;13.858;2023-02-12T00:08:42;116.50;;;40.35;;
36189;SDS011;22232;50.914;13.858;2023-02-12T00:11:11;104.45;;;39.78;;
36189;SDS011;22232;50.914;13.858;2023-02-12T00:13:41;111.15;;;40.40;;
36189;SDS011;22232;50.914;13.858;2023-02-12T00:16:10;114.18;;;41.83;;
36189;SDS011;22232;50.914;13.858;2023-02-12T00:18:40;103.78;;;40.00;;
36189;SDS011;22232;50.914;13.858;2023-02-12T00:21:09;111.35;;;39.88;;
36189;SDS011;22232;50.914;13.858;2023-02-12T00:23:37;117.47;;;41.15;;
36189;SDS011;22232;50.914;13.858;2023-02-12T00:26:11;117.22;;;41.55;;
36189;SDS011;22232;50.914;13.858;2023-02-12T00:28:45;116.47;;;42.10;;
36189;SDS011;22232;50.914;13.858;2023-02-12T00:31:17;105.80;;;39.50;;
36189;SDS011;22232;50.914;13.858;2023-02-12T00:33:48;110.45;;;40.88;;
36189;SDS011;22232;50.914;13.858;2023-02-12T00:36:18;110.85;;;39.33;;
36189;SDS011;22232;50.914;13.858;2023-02-12T00:38:47;118.63;;;40.42;;
36189;SDS011;22232;50.914;13.858;2023-02-12T00:41:15;119.47;;;41.88;;
36189;SDS011;22232;50.914;13.858;2023-02-12T00:43:43;116.55;;;41.67;;
36189;SDS011;22232;50.914;13.858;2023-02-12T00:46:11;108.15;;;39.60;;
36189;SDS011;22232;50.914;13.858;2023-02-12T00:48:39;118.43;;;41.70;;
36189;SDS011;22232;50.914;13.858;2023-02-12T00:51:07;118.90;;;41.03;;
36189;SDS011;22232;50.914;13.858;2023-02-12T00:53:35;112.05;;;41.50;;
36189;SDS011;22232;50.914;13.858;2023-02-12T00:56:03;114.65;;;41.28;;
36189;SDS011;22232;50.914;13.858;2023-02-12T00:58:34;107.80;;;39.92;;
36189;SDS011;22232;50.914;13.858;2023-02-12T01:01:02;116.35;;;40.25;;
36189;SDS011;22232;50.914;13.858;2023-02-12T01:03:30;116.00;;;41.10;;
36189;SDS011;22232;50.914;13.858;2023-02-12T01:05:58;118.40;;;40.63;;
36189;SDS011;22232;50.914;13.858;2023-02-12T01:08:26;126.30;;;41.70;;
36189;SDS011;22232;50.914;13.858;2023-02-12T01:10:58;116.80;;;40.88;;
36189;SDS011;22232;50.914;13.858;2023-02-12T01:13:28;124.78;;;41.65;;
36189;SDS011;22232;50.914;13.858;2023-02-12T01:16:00;112.38;;;40.42;;
36189;SDS011;22232;50.914;13.858;2023-02-12T01:18:35;103.80;;;38.65;;
36189;SDS011;22232;50.914;13.858;2023-02-12T01:21:14;115.90;;;41.03;;
36189;SDS011;22232;50.914;13.858;2023-02-12T01:23:47;111.43;;;39.75;;
36189;SDS011;22232;50.914;13.858;2023-02-12T01:26:16;120.35;;;40.45;;
36189;SDS011;22232;50.914;13.858;2023-02-12T01:28:48;119.68;;;40.60;;
36189;SDS011;22232;50.914;13.858;2023-02-12T01:31:21;120.68;;;41.22;;
36189;SDS011;22232;50.914;13.858;2023-02-12T01:33:51;117.93;;;41.55;;
36189;SDS011;22232;50.914;13.858;2023-02-12T01:36:20;115.25;;;41.03;;
36189;SDS011;22232;50.914;13.858;2023-02-12T01:38:49;126.78;;;40.78;;
36189;SDS011;22232;50.914;13.858;2023-02-12T01:41:19;127.43;;;41.60;;
36189;SDS011;22232;50.914;13.858;2023-02-12T01:46:32;119.13;;;39.77;;
36189;SDS011;22232;50.914;13.858;2023-02-12T01:49:00;107.70;;;37.92;;
36189;SDS011;22232;50.914;13.858;2023-02-12T01:51:29;111.78;;;37.00;;
36189;SDS011;22232;50.914;13.858;2023-02-12T01:53:59;114.82;;;38.55;;
36189;SDS011;22232;50.914;13.858;2023-02-12T01:56:31;113.18;;;39.10;;
36189;SDS011;22232;50.914;13.858;2023-02-12T01:59:00;122.28;;;41.75;;
36189;SDS011;22232;50.914;13.858;2023-02-12T02:01:30;107.22;;;39.13;;
36189;SDS011;22232;50.914;13.858;2023-02-12T02:04:01;115.15;;;38.75;;
36189;SDS011;22232;50.914;13.858;2023-02-12T02:06:35;113.95;;;38.45;;
36189;SDS011;22232;50.914;13.858;2023-02-12T02:09:08;124.68;;;40.33;;
36189;SDS011;22232;50.914;13.858;2023-02-12T02:11:35;104.75;;;37.33;;
36189;SDS011;22232;50.914;13.858;2023-02-12T02:14:22;119.63;;;40.88;;
36189;SDS011;22232;50.914;13.858;2023-02-12T02:17:19;115.63;;;39.47;;
36189;SDS011;22232;50.914;13.858;2023-02-12T02:20:10;123.78;;;40.83;;
36189;SDS011;22232;50.914;13.858;2023-02-12T02:34:17;123.55;;;42.53;;
36189;SDS011;22232;50.914;13.858;2023-02-12T02:39:42;125.75;;;42.10;;
36189;SDS011;22232;50.914;13.858;2023-02-12T02:42:36;122.03;;;41.53;;
36189;SDS011;22232;50.914;13.858;2023-02-12T02:45:11;127.82;;;42.15;;
36189;SDS011;22232;50.914;13.858;2023-02-12T02:47:47;133.50;;;43.17;;
36189;SDS011;22232;50.914;13.858;2023-02-12T02:50:19;137.68;;;45.53;;
36189;SDS011;22232;50.914;13.858;2023-02-12T02:52:52;147.40;;;43.97;;
36189;SDS011;22232;50.914;13.858;2023-02-12T02:55:43;148.60;;;45.20;;
36189;SDS011;22232;50.914;13.858;2023-02-12T02:58:16;170.63;;;47.25;;
36189;SDS011;22232;50.914;13.858;2023-02-12T03:00:53;140.98;;;42.58;;
36189;SDS011;22232;50.914;13.858;2023-02-12T03:03:39;148.13;;;45.42;;
36189;SDS011;22232;50.914;13.858;2023-02-12T03:06:20;150.90;;;45.53;;
36189;SDS011;22232;50.914;13.858;2023-02-12T03:08:57;148.52;;;44.72;;
36189;SDS011;22232;50.914;13.858;2023-02-12T03:11:31;133.75;;;42.70;;
36189;SDS011;22232;50.914;13.858;2023-02-12T03:14:09;134.02;;;41.25;;
36189;SDS011;22232;50.914;13.858;2023-02-12T03:20:05;121.00;;;38.40;;
36189;SDS011;22232;50.914;13.858;2023-02-12T03:22:38;137.63;;;42.67;;
36189;SDS011;22232;50.914;13.858;2023-02-12T03:25:14;115.45;;;39.00;;
36189;SDS011;22232;50.914;13.858;2023-02-12T03:27:49;131.00;;;40.50;;
36189;SDS011;22232;50.914;13.858;2023-02-12T03:30:28;121.70;;;39.17;;
36189;SDS011;22232;50.914;13.858;2023-02-12T03:33:12;112.88;;;38.88;;
36189;SDS011;22232;50.914;13.858;2023-02-12T03:39:29;108.18;;;37.38;;
36189;SDS011;22232;50.914;13.858;2023-02-12T03:42:09;101.80;;;36.05;;
36189;SDS011;22232;50.914;13.858;2023-02-12T03:44:44;106.13;;;36.05;;
36189;SDS011;22232;50.914;13.858;2023-02-12T03:53:08;109.18;;;38.08;;
36189;SDS011;22232;50.914;13.858;2023-02-12T03:55:35;110.43;;;37.70;;
36189;SDS011;22232;50.914;13.858;2023-02-12T03:58:09;118.13;;;38.70;;
36189;SDS011;22232;50.914;13.858;2023-02-12T04:00:40;109.18;;;38.78;;
36189;SDS011;22232;50.914;13.858;2023-02-12T04:03:09;103.82;;;36.42;;
36189;SDS011;22232;50.914;13.858;2023-02-12T04:05:37;111.82;;;39.45;;
36189;SDS011;22232;50.914;13.858;2023-02-12T04:08:05;110.18;;;38.15;;
36189;SDS011;22232;50.914;13.858;2023-02-12T04:11:00;102.95;;;38.45;;
36189;SDS011;22232;50.914;13.858;2023-02-12T04:13:43;99.30;;;35.80;;
36189;SDS011;22232;50.914;13.858;2023-02-12T04:16:32;97.50;;;37.80;;
36189;SDS011;22232;50.914;13.858;2023-02-12T04:19:06;111.03;;;38.13;;
36189;SDS011;22232;50.914;13.858;2023-02-12T04:24:24;113.00;;;38.75;;
36189;SDS011;22232;50.914;13.858;2023-02-12T04:26:59;102.45;;;37.95;;
36189;SDS011;22232;50.914;13.858;2023-02-12T04:32:20;168.98;;;42.45;;
36189;SDS011;22232;50.914;13.858;2023-02-12T04:41:07;250.68;;;47.95;;
36189;SDS011;22232;50.914;13.858;2023-02-12T04:43:36;296.52;;;50.22;;
36189;SDS011;22232;50.914;13.858;2023-02-12T04:46:04;129.50;;;40.35;;
36189;SDS011;22232;50.914;13.858;2023-02-12T04:48:34;180.82;;;41.85;;
36189;SDS011;22232;50.914;13.858;2023-02-12T04:51:11;191.27;;;40.33;;
36189;SDS011;22232;50.914;13.858;2023-02-12T04:53:39;158.23;;;39.00;;
36189;SDS011;22232;50.914;13.858;2023-02-12T04:56:08;218.85;;;43.28;;
36189;SDS011;22232;50.914;13.858;2023-02-12T04:58:39;118.35;;;36.53;;
36189;SDS011;22232;50.914;13.858;2023-02-12T05:01:07;115.38;;;35.97;;
36189;SDS011;22232;50.914;13.858;2023-02-12T05:03:36;91.25;;;32.15;;
36189;SDS011;22232;50.914;13.858;2023-02-12T05:06:04;99.03;;;31.95;;
36189;SDS011;22232;50.914;13.858;2023-02-12T05:08:34;81.70;;;29.60;;
36189;SDS011;22232;50.914;13.858;2023-02-12T05:11:02;97.82;;;32.22;;
36189;SDS011;22232;50.914;13.858;2023-02-12T05:13:31;98.25;;;31.95;;
36189;SDS011;22232;50.914;13.858;2023-02-12T05:15:58;102.70;;;33.28;;
36189;SDS011;22232;50.914;13.858;2023-02-12T05:18:26;100.43;;;33.88;;
36189;SDS011;22232;50.914;13.858;2023-02-12T05:20:55;109.30;;;33.40;;
36189;SDS011;22232;50.914;13.858;2023-02-12T05:23:25;89.95;;;32.88;;
36189;SDS011;22232;50.914;13.858;2023-02-12T05:25:56;105.28;;;34.45;;
36189;SDS011;22232;50.914;13.858;2023-02-12T05:28:25;103.63;;;33.25;;
36189;SDS011;22232;50.914;13.858;2023-02-12T05:30:53;150.68;;;37.50;;
36189;SDS011;22232;50.914;13.858;2023-02-12T05:33:21;152.93;;;37.85;;
36189;SDS011;22232;50.914;13.858;2023-02-12T05:35:48;93.78;;;32.38;;
36189;SDS011;22232;50.914;13.858;2023-02-12T05:38:16;174.02;;;38.60;;
36189;SDS011;22232;50.914;13.858;2023-02-12T05:47:54;162.45;;;37.40;;
36189;SDS011;22232;50.914;13.858;2023-02-12T05:50:22;116.70;;;35.53;;
36189;SDS011;22232;50.914;13.858;2023-02-12T05:52:59;103.63;;;35.40;;
36189;SDS011;22232;50.914;13.858;2023-02-12T05:55:27;273.50;;;45.95;;
36189;SDS011;22232;50.914;13.858;2023-02-12T05:57:54;169.85;;;40.83;;
36189;SDS011;22232;50.914;13.858;2023-02-12T06:00:22;191.27;;;42.58;;
36189;SDS011;22232;50.914;13.858;2023-02-12T06:02:50;139.55;;;37.58;;
36189;SDS011;22232;50.914;13.858;2023-02-12T06:05:17;308.55;;;47.63;;
36189;SDS011;22232;50.914;13.858;2023-02-12T06:07:45;219.93;;;46.28;;
36189;SDS011;22232;50.914;13.858;2023-02-12T06:10:12;151.93;;;38.63;;
36189;SDS011;22232;50.914;13.858;2023-02-12T06:12:40;161.15;;;42.40;;
36189;SDS011;22232;50.914;13.858;2023-02-12T06:15:07;263.73;;;45.28;;
36189;SDS011;22232;50.914;13.858;2023-02-12T06:17:35;161.73;;;41.95;;
36189;SDS011;22232;50.914;13.858;2023-02-12T06:20:03;155.48;;;41.03;;
36189;SDS011;22232;50.914;13.858;2023-02-12T06:22:30;215.82;;;44.20;;
36189;SDS011;22232;50.914;13.858;2023-02-12T06:24:58;150.93;;;38.70;;
36189;SDS011;22232;50.914;13.858;2023-02-12T06:27:25;220.88;;;44.67;;
36189;SDS011;22232;50.914;13.858;2023-02-12T06:29:53;116.10;;;36.83;;
36189;SDS011;22232;50.914;13.858;2023-02-12T06:32:20;89.55;;;33.85;;
36189;SDS011;22232;50.914;13.858;2023-02-12T06:34:49;127.70;;;37.38;;
36189;SDS011;22232;50.914;13.858;2023-02-12T06:37:17;113.97;;;36.05;;
36189;SDS011;22232;50.914;13.858;2023-02-12T06:39:44;117.03;;;36.97;;
36189;SDS011;22232;50.914;13.858;2023-02-12T06:42:12;135.60;;;38.28;;
36189;SDS011;22232;50.914;13.858;2023-02-12T06:44:39;111.70;;;36.70;;
36189;SDS011;22232;50.914;13.858;2023-02-12T06:47:07;115.57;;;36.80;;
36189;SDS011;22232;50.914;13.858;2023-02-12T06:49:34;109.63;;;34.17;;
36189;SDS011;22232;50.914;13.858;2023-02-12T06:52:02;107.80;;;34.60;;
36189;SDS011;22232;50.914;13.858;2023-02-12T06:54:29;117.20;;;34.60;;
36189;SDS011;22232;50.914;13.858;2023-02-12T06:56:57;95.80;;;31.15;;
36189;SDS011;22232;50.914;13.858;2023-02-12T06:59:24;110.68;;;33.65;;
36189;SDS011;22232;50.914;13.858;2023-02-12T07:01:52;112.45;;;32.95;;
36189;SDS011;22232;50.914;13.858;2023-02-12T07:04:19;87.53;;;29.55;;
36189;SDS011;22232;50.914;13.858;2023-02-12T07:06:47;108.35;;;32.08;;
36189;SDS011;22232;50.914;13.858;2023-02-12T07:09:15;101.72;;;33.13;;
36189;SDS011;22232;50.914;13.858;2023-02-12T07:11:42;88.78;;;30.20;;
36189;SDS011;22232;50.914;13.858;2023-02-12T07:14:13;84.93;;;30.25;;
36189;SDS011;22232;50.914;13.858;2023-02-12T07:16:42;101.30;;;32.30;;
36189;SDS011;22232;50.914;13.858;2023-02-12T07:19:10;92.32;;;31.35;;
36189;SDS011;22232;50.914;13.858;2023-02-12T07:21:40;88.38;;;29.05;;
36189;SDS011;22232;50.914;13.858;2023-02-12T07:24:08;98.90;;;30.75;;
36189;SDS011;22232;50.914;13.858;2023-02-12T07:26:38;91.50;;;29.58;;
36189;SDS011;22232;50.914;13.858;2023-02-12T07:29:06;83.68;;;29.30;;
36189;SDS011;22232;50.914;13.858;2023-02-12T07:31:34;93.75;;;29.75;;
36189;SDS011;22232;50.914;13.858;2023-02-12T07:34:01;101.03;;;30.52;;
36189;SDS011;22232;50.914;13.858;2023-02-12T07:36:30;87.38;;;27.55;;
36189;SDS011;22232;50.914;13.858;2023-02-12T07:38:58;78.75;;;26.95;;
36189;SDS011;22232;50.914;13.858;2023-02-12T07:41:28;77.00;;;26.73;;
36189;SDS011;22232;50.914;13.858;2023-02-12T07:43:58;78.22;;;27.23;;
36189;SDS011;22232;50.914;13.858;2023-02-12T07:46:34;69.28;;;26.20;;
36189;SDS011;22232;50.914;13.858;2023-02-12T07:49:15;70.88;;;27.95;;
36189;SDS011;22232;50.914;13.858;2023-02-12T07:51:45;88.53;;;27.92;;
36189;SDS011;22232;50.914;13.858;2023-02-12T07:54:14;72.80;;;26.67;;
36189;SDS011;22232;50.914;13.858;2023-02-12T07:56:42;80.32;;;27.63;;
36189;SDS011;22232;50.914;13.858;2023-02-12T07:59:14;62.00;;;24.30;;
36189;SDS011;22232;50.914;13.858;2023-02-12T08:01:47;76.10;;;26.15;;
36189;SDS011;22232;50.914;13.858;2023-02-12T08:04:17;80.75;;;27.48;;
36189;SDS011;22232;50.914;13.858;2023-02-12T08:06:47;78.75;;;25.73;;
36189;SDS011;22232;50.914;13.858;2023-02-12T08:09:18;71.10;;;25.17;;
36189;SDS011;22232;50.914;13.858;2023-02-12T08:11:47;70.18;;;27.25;;
36189;SDS011;22232;50.914;13.858;2023-02-12T08:14:16;72.95;;;27.23;;
36189;SDS011;22232;50.914;13.858;2023-02-12T08:16:45;76.88;;;26.60;;
36189;SDS011;22232;50.914;13.858;2023-02-12T08:19:15;71.10;;;26.52;;
36189;SDS011;22232;50.914;13.858;2023-02-12T08:21:50;68.95;;;26.02;;
36189;SDS011;22232;50.914;13.858;2023-02-12T08:24:19;66.78;;;24.67;;
36189;SDS011;22232;50.914;13.858;2023-02-12T08:26:48;65.45;;;25.17;;
36189;SDS011;22232;50.914;13.858;2023-02-12T08:29:17;68.70;;;24.92;;
36189;SDS011;22232;50.914;13.858;2023-02-12T08:31:47;79.38;;;27.08;;
36189;SDS011;22232;50.914;13.858;2023-02-12T08:34:17;72.88;;;27.80;;
36189;SDS011;22232;50.914;13.858;2023-02-12T08:36:48;76.90;;;27.23;;
36189;SDS011;22232;50.914;13.858;2023-02-12T08:39:16;72.40;;;25.75;;
36189;SDS011;22232;50.914;13.858;2023-02-12T08:41:45;60.95;;;23.92;;
36189;SDS011;22232;50.914;13.858;2023-02-12T08:44:13;65.00;;;25.58;;
36189;SDS011;22232;50.914;13.858;2023-02-12T08:46:42;54.17;;;23.70;;
36189;SDS011;22232;50.914;13.858;2023-02-12T08:49:17;54.30;;;22.10;;
36189;SDS011;22232;50.914;13.858;2023-02-12T08:51:48;57.03;;;23.20;;
36189;SDS011;22232;50.914;13.858;2023-02-12T08:54:19;63.55;;;24.80;;
36189;SDS011;22232;50.914;13.858;2023-02-12T08:56:48;58.03;;;23.45;;
36189;SDS011;22232;50.914;13.858;2023-02-12T08:59:16;54.55;;;22.85;;
36189;SDS011;22232;50.914;13.858;2023-02-12T09:01:44;56.60;;;23.00;;
36189;SDS011;22232;50.914;13.858;2023-02-12T09:04:13;56.90;;;21.63;;
36189;SDS011;22232;50.914;13.858;2023-02-12T09:06:44;49.00;;;20.45;;
36189;SDS011;22232;50.914;13.858;2023-02-12T09:09:12;48.47;;;21.10;;
36189;SDS011;22232;50.914;13.858;2023-02-12T09:11:41;47.67;;;19.33;;
36189;SDS011;22232;50.914;13.858;2023-02-12T09:14:12;43.38;;;19.50;;
36189;SDS011;22232;50.914;13.858;2023-02-12T09:16:42;43.80;;;18.88;;
36189;SDS011;22232;50.914;13.858;2023-02-12T09:19:11;40.20;;;18.77;;
36189;SDS011;22232;50.914;13.858;2023-02-12T09:21:40;43.78;;;19.42;;
36189;SDS011;22232;50.914;13.858;2023-02-12T09:24:08;42.53;;;18.05;;
36189;SDS011;22232;50.914;13.858;2023-02-12T09:26:36;49.83;;;19.77;;
36189;SDS011;22232;50.914;13.858;2023-02-12T09:29:05;57.08;;;22.90;;
36189;SDS011;22232;50.914;13.858;2023-02-12T09:31:32;52.00;;;22.17;;
36189;SDS011;22232;50.914;13.858;2023-02-12T09:34:02;51.30;;;23.30;;
36189;SDS011;22232;50.914;13.858;2023-02-12T09:36:32;46.85;;;19.98;;
36189;SDS011;22232;50.914;13.858;2023-02-12T09:39:00;44.53;;;20.90;;
36189;SDS011;22232;50.914;13.858;2023-02-12T09:50:44;50.03;;;21.63;;
36189;SDS011;22232;50.914;13.858;2023-02-12T09:52:59;49.42;;;22.35;;
36189;SDS011;22232;50.914;13.858;2023-02-12T09:55:28;49.47;;;20.73;;
36189;SDS011;22232;50.914;13.858;2023-02-12T09:57:58;40.70;;;19.50;;
36189;SDS011;22232;50.914;13.858;2023-02-12T10:00:28;47.50;;;20.85;;
36189;SDS011;22232;50.914;13.858;2023-02-12T10:03:01;45.47;;;20.15;;
36189;SDS011;22232;50.914;13.858;2023-02-12T10:05:34;42.05;;;18.70;;
36189;SDS011;22232;50.914;13.858;2023-02-12T10:13:42;41.08;;;16.13;;
36189;SDS011;22232;50.914;13.858;2023-02-12T10:22:21;34.33;;;15.98;;
36189;SDS011;22232;50.914;13.858;2023-02-12T10:27:35;38.35;;;15.00;;
36189;SDS011;22232;50.914;13.858;2023-02-12T10:33:17;31.90;;;12.95;;
36189;SDS011;22232;50.914;13.858;2023-02-12T10:38:44;34.95;;;10.93;;
36189;SDS011;22232;50.914;13.858;2023-02-12T10:41:16;30.65;;;11.45;;
36189;SDS011;22232;50.914;13.858;2023-02-12T10:43:44;30.95;;;11.30;;
36189;SDS011;22232;50.914;13.858;2023-02-12T10:46:15;30.30;;;10.25;;
36189;SDS011;22232;50.914;13.858;2023-02-12T10:48:44;23.50;;;9.35;;
36189;SDS011;22232;50.914;13.858;2023-02-12T10:56:58;26.33;;;9.05;;
36189;SDS011;22232;50.914;13.858;2023-02-12T10:59:32;24.08;;;9.52;;
36189;SDS011;22232;50.914;13.858;2023-02-12T11:02:01;28.63;;;9.68;;
36189;SDS011;22232;50.914;13.858;2023-02-12T11:04:30;23.98;;;8.85;;
36189;SDS011;22232;50.914;13.858;2023-02-12T11:07:06;21.10;;;7.75;;
36189;SDS011;22232;50.914;13.858;2023-02-12T11:09:37;28.35;;;9.02;;
36189;SDS011;22232;50.914;13.858;2023-02-12T11:15:05;25.58;;;8.80;;
36189;SDS011;22232;50.914;13.858;2023-02-12T11:17:38;24.75;;;8.15;;
36189;SDS011;22232;50.914;13.858;2023-02-12T11:25:23;24.88;;;8.38;;
36189;SDS011;22232;50.914;13.858;2023-02-12T11:28:03;22.63;;;9.00;;
36189;SDS011;22232;50.914;13.858;2023-02-12T11:30:50;23.25;;;8.73;;
36189;SDS011;22232;50.914;13.858;2023-02-12T11:33:30;24.35;;;9.10;;
36189;SDS011;22232;50.914;13.858;2023-02-12T11:36:03;20.45;;;8.85;;
36189;SDS011;22232;50.914;13.858;2023-02-12T11:39:02;20.33;;;7.80;;
36189;SDS011;22232;50.914;13.858;2023-02-12T11:41:33;19.17;;;8.40;;
36189;SDS011;22232;50.914;13.858;2023-02-12T11:47:02;21.95;;;8.55;;
36189;SDS011;22232;50.914;13.858;2023-02-12T11:49:52;15.13;;;6.88;;
36189;SDS011;22232;50.914;13.858;2023-02-12T11:52:50;20.38;;;7.80;;
36189;SDS011;22232;50.914;13.858;2023-02-12T11:55:24;16.70;;;7.80;;
36189;SDS011;22232;50.914;13.858;2023-02-12T12:00:45;20.10;;;8.68;;
36189;SDS011;22232;50.914;13.858;2023-02-12T12:03:24;16.25;;;7.95;;
36189;SDS011;22232;50.914;13.858;2023-02-12T12:17:02;16.13;;;6.30;;
36189;SDS011;22232;50.914;13.858;2023-02-12T12:20:08;14.98;;;6.25;;
36189;SDS011;22232;50.914;13.858;2023-02-12T12:22:45;17.92;;;5.60;;
36189;SDS011;22232;50.914;13.858;2023-02-12T12:31:02;20.75;;;6.43;;
36189;SDS011;22232;50.914;13.858;2023-02-12T12:33:48;17.10;;;6.30;;
36189;SDS011;22232;50.914;13.858;2023-02-12T12:36:29;15.13;;;5.97;;
36189;SDS011;22232;50.914;13.858;2023-02-12T12:50:37;16.63;;;5.38;;
36189;SDS011;22232;50.914;13.858;2023-02-12T13:04:46;16.30;;;6.55;;
36189;SDS011;22232;50.914;13.858;2023-02-12T13:07:17;17.23;;;6.00;;
36189;SDS011;22232;50.914;13.858;2023-02-12T13:10:38;19.13;;;6.17;;
36189;SDS011;22232;50.914;13.858;2023-02-12T13:27:11;18.75;;;6.43;;
36189;SDS011;22232;50.914;13.858;2023-02-12T13:29:44;15.63;;;5.93;;
36189;SDS011;22232;50.914;13.858;2023-02-12T13:32:21;16.48;;;6.50;;
36189;SDS011;22232;50.914;13.858;2023-02-12T13:34:50;20.40;;;6.45;;
36189;SDS011;22232;50.914;13.858;2023-02-12T13:40:21;21.92;;;7.22;;
36189;SDS011;22232;50.914;13.858;2023-02-12T13:43:10;26.15;;;7.05;;
36189;SDS011;22232;50.914;13.858;2023-02-12T13:48:48;17.13;;;5.70;;
36189;SDS011;22232;50.914;13.858;2023-02-12T13:51:49;16.00;;;5.18;;
36189;SDS011;22232;50.914;13.858;2023-02-12T13:57:08;22.90;;;5.85;;
36189;SDS011;22232;50.914;13.858;2023-02-12T13:59:40;22.40;;;6.57;;
36189;SDS011;22232;50.914;13.858;2023-02-12T14:05:00;12.65;;;5.25;;
36189;SDS011;22232;50.914;13.858;2023-02-12T14:07:43;26.88;;;7.40;;
36189;SDS011;22232;50.914;13.858;2023-02-12T14:10:48;20.52;;;6.05;;
36189;SDS011;22232;50.914;13.858;2023-02-12T14:13:12;13.98;;;5.85;;
36189;SDS011;22232;50.914;13.858;2023-02-12T14:16:17;13.15;;;5.35;;
36189;SDS011;22232;50.914;13.858;2023-02-12T14:22:56;20.30;;;5.60;;
36189;SDS011;22232;50.914;13.858;2023-02-12T14:37:53;15.75;;;5.97;;
36189;SDS011;22232;50.914;13.858;2023-02-12T14:45:56;11.82;;;4.88;;
36189;SDS011;22232;50.914;13.858;2023-02-12T14:48:40;14.82;;;5.40;;
36189;SDS011;22232;50.914;13.858;2023-02-12T14:54:45;13.85;;;4.88;;
36189;SDS011;22232;50.914;13.858;2023-02-12T15:00:00;11.82;;;4.90;;
36189;SDS011;22232;50.914;13.858;2023-02-12T15:02:33;9.27;;;4.80;;
36189;SDS011;22232;50.914;13.858;2023-02-12T15:05:10;13.23;;;5.25;;
36189;SDS011;22232;50.914;13.858;2023-02-12T15:07:43;8.93;;;4.45;;
36189;SDS011;22232;50.914;13.858;2023-02-12T15:10:16;14.23;;;5.38;;
36189;SDS011;22232;50.914;13.858;2023-02-12T15:12:52;8.38;;;4.43;;
36189;SDS011;22232;50.914;13.858;2023-02-12T15:15:49;7.70;;;3.88;;
36189;SDS011;22232;50.914;13.858;2023-02-12T15:21:32;9.45;;;5.00;;
36189;SDS011;22232;50.914;13.858;2023-02-12T15:24:05;8.45;;;4.68;;
36189;SDS011;22232;50.914;13.858;2023-02-12T15:26:36;7.63;;;4.63;;
36189;SDS011;22232;50.914;13.858;2023-02-12T15:29:15;9.35;;;5.20;;
36189;SDS011;22232;50.914;13.858;2023-02-12T15:32:22;12.13;;;5.63;;
36189;SDS011;22232;50.914;13.858;2023-02-12T15:34:53;11.15;;;4.95;;
36189;SDS011;22232;50.914;13.858;2023-02-12T15:37:23;11.35;;;5.13;;
36189;SDS011;22232;50.914;13.858;2023-02-12T15:39:57;8.75;;;5.03;;
36189;SDS011;22232;50.914;13.858;2023-02-12T15:47:36;12.68;;;6.03;;
36189;SDS011;22232;50.914;13.858;2023-02-12T15:50:04;10.88;;;5.75;;
36189;SDS011;22232;50.914;13.858;2023-02-12T15:52:33;12.75;;;5.78;;
36189;SDS011;22232;50.914;13.858;2023-02-12T15:55:05;9.98;;;5.75;;
36189;SDS011;22232;50.914;13.858;2023-02-12T15:57:40;12.00;;;6.43;;
36189;SDS011;22232;50.914;13.858;2023-02-12T16:00:26;10.77;;;6.07;;
36189;SDS011;22232;50.914;13.858;2023-02-12T16:02:54;13.23;;;6.40;;
36189;SDS011;22232;50.914;13.858;2023-02-12T16:05:22;10.25;;;6.25;;
36189;SDS011;22232;50.914;13.858;2023-02-12T16:07:51;8.30;;;5.18;;
36189;SDS011;22232;50.914;13.858;2023-02-12T16:10:19;13.65;;;6.05;;
36189;SDS011;22232;50.914;13.858;2023-02-12T16:12:48;9.77;;;6.18;;
36189;SDS011;22232;50.914;13.858;2023-02-12T16:15:24;10.20;;;6.15;;
36189;SDS011;22232;50.914;13.858;2023-02-12T16:17:57;9.77;;;6.20;;
36189;SDS011;22232;50.914;13.858;2023-02-12T16:20:26;12.10;;;6.43;;
36189;SDS011;22232;50.914;13.858;2023-02-12T16:22:56;10.77;;;6.03;;
36189;SDS011;22232;50.914;13.858;2023-02-12T16:30:34;9.68;;;6.18;;
36189;SDS011;22232;50.914;13.858;2023-02-12T16:36:12;11.77;;;6.72;;
36189;SDS011;22232;50.914;13.858;2023-02-12T16:39:04;9.50;;;5.72;;
36189;SDS011;22232;50.914;13.858;2023-02-12T16:41:49;11.05;;;6.70;;
36189;SDS011;22232;50.914;13.858;2023-02-12T16:44:20;13.60;;;7.13;;
36189;SDS011;22232;50.914;13.858;2023-02-12T16:46:53;13.73;;;7.35;;
36189;SDS011;22232;50.914;13.858;2023-02-12T16:49:23;15.63;;;7.95;;
36189;SDS011;22232;50.914;13.858;2023-02-12T16:51:52;17.73;;;9.38;;
36189;SDS011;22232;50.914;13.858;2023-02-12T16:54:40;17.80;;;9.30;;
36189;SDS011;22232;50.914;13.858;2023-02-12T16:57:08;14.68;;;8.27;;
36189;SDS011;22232;50.914;13.858;2023-02-12T16:59:38;17.63;;;8.10;;
36189;SDS011;22232;50.914;13.858;2023-02-12T17:02:10;15.27;;;8.07;;
36189;SDS011;22232;50.914;13.858;2023-02-12T17:04:40;15.40;;;8.45;;
36189;SDS011;22232;50.914;13.858;2023-02-12T17:07:14;15.45;;;8.40;;
36189;SDS011;22232;50.914;13.858;2023-02-12T17:09:48;15.38;;;8.40;;
36189;SDS011;22232;50.914;13.858;2023-02-12T17:12:16;16.50;;;8.52;;
36189;SDS011;22232;50.914;13.858;2023-02-12T17:14:44;14.25;;;8.13;;
36189;SDS011;22232;50.914;13.858;2023-02-12T17:17:11;14.48;;;8.60;;
36189;SDS011;22232;50.914;13.858;2023-02-12T17:19:39;16.85;;;9.32;;
36189;SDS011;22232;50.914;13.858;2023-02-12T17:22:07;14.32;;;8.27;;
36189;SDS011;22232;50.914;13.858;2023-02-12T17:24:43;16.40;;;8.40;;
36189;SDS011;22232;50.914;13.858;2023-02-12T17:27:15;15.73;;;8.48;;
36189;SDS011;22232;50.914;13.858;2023-02-12T17:29:46;14.02;;;7.47;;
36189;SDS011;22232;50.914;13.858;2023-02-12T17:32:14;14.40;;;7.50;;
36189;SDS011;22232;50.914;13.858;2023-02-12T17:34:42;15.30;;;8.05;;
36189;SDS011;22232;50.914;13.858;2023-02-12T17:37:15;12.20;;;6.95;;
36189;SDS011;22232;50.914;13.858;2023-02-12T17:39:44;15.75;;;8.70;;
36189;SDS011;22232;50.914;13.858;2023-02-12T17:42:11;15.48;;;8.10;;
36189;SDS011;22232;50.914;13.858;2023-02-12T17:44:39;16.85;;;9.35;;
36189;SDS011;22232;50.914;13.858;2023-02-12T17:47:07;15.27;;;8.48;;
36189;SDS011;22232;50.914;13.858;2023-02-12T17:49:35;18.05;;;9.45;;
36189;SDS011;22232;50.914;13.858;2023-02-12T17:52:04;18.35;;;10.02;;
36189;SDS011;22232;50.914;13.858;2023-02-12T17:54:33;16.52;;;9.65;;
36189;SDS011;22232;50.914;13.858;2023-02-12T17:57:01;18.85;;;9.73;;
36189;SDS011;22232;50.914;13.858;2023-02-12T17:59:28;21.27;;;10.55;;
36189;SDS011;22232;50.914;13.858;2023-02-12T18:01:56;18.20;;;9.20;;
36189;SDS011;22232;50.914;13.858;2023-02-12T18:04:27;16.55;;;9.63;;
36189;SDS011;22232;50.914;13.858;2023-02-12T18:06:55;18.40;;;10.50;;